Galeon Andalucia — EAIZ — position and weather

sailwx.info

Track history (hours):
 
Tides and Currents Weather Stations Pressure Air Temp Water Temp Dewpoint Dewpoint Depression Visibility Wind Speed Wind Dir Waves Ship Positions

Galeon Andalucia

Last reported at 2019-Aug-20 08:02 UTC. Time now 2019-Aug-24 06:41 UTC.
Position N 49°30' W 002°46'.

Length 47 m; draft 3.2 m.

Type: Ship. MMSI: 225356000.

Date/timePositionNaut miles runAvg speedWind from/ knotsBaromVisibWave heightAir tempDewpointWater temp
2019-Aug-20 08:02N 49°30' W 002°46'0 5.8
2019-Aug-20 07:58N 49°30' W 002°46'3 5.9
2019-Aug-20 07:29N 49°32' W 002°43'3 5.9
2019-Aug-20 07:00N 49°34' W 002°40'3 6.5
2019-Aug-20 06:30N 49°36' W 002°36'4 7.2
2019-Aug-20 06:00N 49°39' W 002°33'4 8.3
2019-Aug-20 05:30N 49°43' W 002°29'16 7.4
2019-Aug-20 03:21N 49°47' W 002°06'5 8.8
2019-Aug-20 02:47N 49°47' W 001°58'310.1
2019-Aug-20 02:30N 49°47' W 001°54'5 9.2
2019-Aug-20 02:00N 49°47' W 001°47'4 8.0
2019-Aug-20 01:30N 49°46' W 001°40'4 7.2
2019-Aug-20 01:01N 49°46' W 001°35'3 6.2
2019-Aug-20 00:30N 49°46' W 001°30'3 5.2
2019-Aug-20 00:00N 49°46' W 001°26'2 4.0
2019-Aug-19 23:30N 49°46' W 001°23'2 3.1
2019-Aug-19 23:01N 49°46' W 001°21'1 2.6
2019-Aug-19 22:30N 49°46' W 001°19'1 2.3
2019-Aug-19 22:00N 49°45' W 001°17'1 2.0
2019-Aug-19 21:30N 49°45' W 001°16'1 1.8
2019-Aug-19 21:00N 49°45' W 001°14'1 2.1
2019-Aug-19 20:31N 49°44' W 001°13'2 3.5
2019-Aug-19 20:00N 49°44' W 001°10'2 4.7
2019-Aug-19 19:30N 49°43' W 001°07'12 6.5
2019-Aug-19 17:40N 49°40' W 000°49'2 7.6
2019-Aug-19 17:26N 49°39' W 000°46'3 7.5
2019-Aug-19 17:00N 49°38' W 000°42'4 7.2
2019-Aug-19 16:30N 49°37' W 000°37'4 7.1
2019-Aug-19 16:00N 49°36' W 000°31'4 7.1
2019-Aug-19 15:30N 49°35' W 000°26'3 6.7
2019-Aug-19 15:00N 49°33' W 000°21'3 6.2
2019-Aug-19 14:30N 49°32' W 000°17'3 5.9
2019-Aug-19 14:00N 49°31' W 000°13'3 5.5
2019-Aug-19 13:30N 49°30' W 000°09'3 5.0
2019-Aug-19 13:00N 49°29' W 000°05'2 4.9
2019-Aug-19 12:30N 49°29' W 000°02'3 5.1
2019-Aug-19 12:00N 49°27' E 000°02'3 6.1
2019-Aug-19 11:30N 49°26' E 000°06'3 5.7
2019-Aug-19 11:00N 49°26' E 000°10'2 4.7
2019-Aug-19 10:30N 49°25' E 000°14'0 0.4
2019-Aug-19 10:00N 49°25' E 000°14'0 0.0
2019-Aug-19 09:30N 49°25' E 000°14'  
Track history (hours):
 
Tides and Currents Weather Stations Pressure Air Temp Water Temp Dewpoint Dewpoint Depression Visibility Wind Speed Wind Dir Waves Ship Positions

Galeon Andalucia

Last reported at 2019-Aug-20 08:02 UTC. Time now 2019-Aug-24 06:41 UTC.
Position N 49°30' W 002°46'.

Length 47 m; draft 3.2 m.

Type: Ship. MMSI: 225356000.

Date/timePositionNaut miles runAvg speedWind from/ knotsBaromVisibWave heightAir tempDewpointWater temp
2019-Aug-20 08:02N 49°30' W 002°46'0 5.8
2019-Aug-20 07:58N 49°30' W 002°46'3 5.9
2019-Aug-20 07:29N 49°32' W 002°43'3 5.9
2019-Aug-20 07:00N 49°34' W 002°40'3 6.5
2019-Aug-20 06:30N 49°36' W 002°36'4 7.2
2019-Aug-20 06:00N 49°39' W 002°33'4 8.3
2019-Aug-20 05:30N 49°43' W 002°29'16 7.4
2019-Aug-20 03:21N 49°47' W 002°06'5 8.8
2019-Aug-20 02:47N 49°47' W 001°58'310.1
2019-Aug-20 02:30N 49°47' W 001°54'5 9.2
2019-Aug-20 02:00N 49°47' W 001°47'4 8.0
2019-Aug-20 01:30N 49°46' W 001°40'4 7.2
2019-Aug-20 01:01N 49°46' W 001°35'3 6.2
2019-Aug-20 00:30N 49°46' W 001°30'3 5.2
2019-Aug-20 00:00N 49°46' W 001°26'2 4.0
2019-Aug-19 23:30N 49°46' W 001°23'2 3.1
2019-Aug-19 23:01N 49°46' W 001°21'1 2.6
2019-Aug-19 22:30N 49°46' W 001°19'1 2.3
2019-Aug-19 22:00N 49°45' W 001°17'1 2.0
2019-Aug-19 21:30N 49°45' W 001°16'1 1.8
2019-Aug-19 21:00N 49°45' W 001°14'1 2.1
2019-Aug-19 20:31N 49°44' W 001°13'2 3.5
2019-Aug-19 20:00N 49°44' W 001°10'2 4.7
2019-Aug-19 19:30N 49°43' W 001°07'12 6.5
2019-Aug-19 17:40N 49°40' W 000°49'2 7.6
2019-Aug-19 17:26N 49°39' W 000°46'3 7.5
2019-Aug-19 17:00N 49°38' W 000°42'4 7.2
2019-Aug-19 16:30N 49°37' W 000°37'4 7.1
2019-Aug-19 16:00N 49°36' W 000°31'4 7.1
2019-Aug-19 15:30N 49°35' W 000°26'3 6.7
2019-Aug-19 15:00N 49°33' W 000°21'3 6.2
2019-Aug-19 14:30N 49°32' W 000°17'3 5.9
2019-Aug-19 14:00N 49°31' W 000°13'3 5.5
2019-Aug-19 13:30N 49°30' W 000°09'3 5.0
2019-Aug-19 13:00N 49°29' W 000°05'2 4.9
2019-Aug-19 12:30N 49°29' W 000°02'3 5.1
2019-Aug-19 12:00N 49°27' E 000°02'3 6.1
2019-Aug-19 11:30N 49°26' E 000°06'3 5.7
2019-Aug-19 11:00N 49°26' E 000°10'2 4.7
2019-Aug-19 10:30N 49°25' E 000°14'0 0.4
2019-Aug-19 10:00N 49°25' E 000°14'0 0.0
2019-Aug-19 09:30N 49°25' E 000°14'  

Dump ship's entire track history